Accueil
METAR-TAF:

METAR-TAF

Aéroports :

Locarno, Suisse

latitude: 46-09-55N, longitude: 8-52-40E, altitude: 198 m

Observation

Le bulletin a été fait il y a 26 minutes, à 18:50 UTC
Vent calme
Température 0°C
Humidité 100%
Pression 995 hPa
Visibilité: 1200 m
neige faible, brume

METAR: LSZL 111850Z AUTO 00000KT 1200NDV R08/P2000N R26/P2000N -SN BR NCD 00/M00 Q0995 RMK

Heure: 20:16 (19:16 UTC)

Prévision

Le bulletin a été fait il y a 1 heure et 51 minutes, à 17:25 UTC
Prévision valable du 11 à 18 UTC au 12 à 03 UTC
Vent 1 kt de direction variable
Visibilité: 1400 m
neige faible, brume
Probabilité 30% :
Temporairement
du 11 à 18 UTC au 12 à 03 UTC
Visibilité: 0700 m
à une hauteur de 300 ft
neige
Temporairement
du 11 à 19 UTC au 11 à 22 UTC
Visibilité: 2000 m
Ciel couvert à une hauteur de 500 ft
neige, pluie

TAF: LSZL 111725Z 1118/1203 VRB01KT 1400 -SN BR PROB30 TEMPO 1118/1203 0700 SN VV003 TEMPO 1119/1122 2000 SNRA OVC005

Observations et prévisions météorologiques de plus de 4000 aéroports (messages METAR et TAF).

Les stations disponibles sont représentées par des disques jaunes et rouges sur la carte.

Passer la souris dessus pour voir le nom de la station.

Cliquer dessus pour voir les observations et prévisions météorologiques.

Pour changer de carte: cliquez sur les boutons verts avec une croix noire pour zoomer, sur le bouton vert avec un tiret pour effectuer un zoom arrière, ou sur les flèches vertes pour les cartes adjacentes.


METAR-TAF: